METAR Data
IDs: Format: Raw Decoded Include TAF

Data at: 0130 UTC 24 Oct 2019

METAR for:KEBS (Webster City Muni, IA, US)
Text:KEBS 240115Z AUTO 33004KT 10SM FEW039 OVC048 03/03 A3007 RMK AO2
Temperature: 3.0°C ( 37°F)
Dewpoint: 3.0°C ( 37°F) [RH = 100%]
Pressure (altimeter):30.07 inches Hg (1018.4 mb)
Winds:from the NNW (330 degrees) at 5 MPH (4 knots; 2.1 m/s)
Visibility:10 or more sm (16+ km)
Ceiling:4800 feet AGL
Clouds: few clouds at 3900 feet AGL, overcast cloud deck at 4800 feet AGL
QC Flag:automated observation with no human augmentation